East Brewton, Alabama
Current Conditions -  °F | °C
As of 4:06 AM on Sunday 23 Nov 2014 (Local Time) from KGZH Reporting Station
Haze Haze  
Wind Chill: 63°   Ceiling: 400
Heat Index: 63°   Visibility: 3mi
Dew Point: 61°   Wind: 8mph
Humidity: 93%   Direction: 120°ESE
Pressure: 29.87"   Gusts: NA
Location:  31.1052°N, 87.0725°W
Report Text: KGZH 231006Z AUTO 12007KT 3SM BR OVC004 17/16 A2987 RMK AO2 RAE03 P0000 T01720161
Loading
Personal Weather Stations






























Interactive Weather Map New forecast layout! Learn more

10-Day Weather Forecast

Advertisements
Track Severe Weather on mobile